createdAt,value
2023-04-28T00:04:30.703Z,992.00
2023-04-28T00:09:34.634Z,991.86
2023-04-28T00:14:38.760Z,991.44
2023-04-28T00:19:42.991Z,990.62
2023-04-28T00:24:47.122Z,990.38
2023-04-28T00:29:51.277Z,990.25
2023-04-28T00:34:55.447Z,990.18
2023-04-28T00:39:59.573Z,990.40
2023-04-28T00:45:03.779Z,990.52
2023-04-28T00:50:07.920Z,990.85
2023-04-28T00:55:12.095Z,990.92
2023-04-28T01:00:16.236Z,991.37
2023-04-28T01:05:20.425Z,991.29
2023-04-28T01:10:24.541Z,991.04
2023-04-28T01:15:28.718Z,991.03
2023-04-28T01:20:32.917Z,991.14
2023-04-28T01:25:35.170Z,991.33
2023-04-28T01:30:39.334Z,991.42
2023-04-28T01:35:41.609Z,991.53
2023-04-28T01:40:45.735Z,991.65
2023-04-28T01:45:49.949Z,991.59
2023-04-28T01:50:54.087Z,991.49
2023-04-28T01:55:58.570Z,991.67
2023-04-28T02:01:02.427Z,991.60
2023-04-28T02:06:06.575Z,991.66
2023-04-28T02:11:10.707Z,991.68
2023-04-28T02:21:19.114Z,991.63
2023-04-28T02:26:23.230Z,991.44
2023-04-28T02:31:27.430Z,991.17
2023-04-28T02:36:31.538Z,990.92
2023-04-28T02:41:35.698Z,990.64
2023-04-28T02:46:39.865Z,990.38
2023-04-28T02:51:43.991Z,990.18
2023-04-28T02:56:48.211Z,989.93
2023-04-28T03:01:52.326Z,989.78
2023-04-28T03:06:56.534Z,989.59
2023-04-28T03:12:00.660Z,989.42
2023-04-28T03:17:04.842Z,989.22
2023-04-28T03:22:08.991Z,988.92
2023-04-28T03:32:15.485Z,988.43
2023-04-28T03:37:17.742Z,988.19
2023-04-28T03:42:21.832Z,988.01
2023-04-28T03:47:26.051Z,987.88
2023-04-28T03:52:28.321Z,987.72
2023-04-28T03:57:32.475Z,987.58
2023-04-28T04:02:36.726Z,987.29
2023-04-28T04:07:40.806Z,987.18
2023-04-28T04:12:44.947Z,987.00
2023-04-28T04:17:49.204Z,986.83
2023-04-28T04:22:53.242Z,986.67
2023-04-28T04:27:57.377Z,986.61
2023-04-28T04:33:01.604Z,986.41
2023-04-28T04:38:05.779Z,986.31
2023-04-28T04:43:09.953Z,986.32
2023-04-28T04:48:14.130Z,986.28
2023-04-28T04:53:18.210Z,986.43
2023-04-28T04:58:22.417Z,986.62
2023-04-28T05:03:26.602Z,986.79
2023-04-28T05:08:30.687Z,987.09
2023-04-28T05:13:34.866Z,987.16
2023-04-28T05:18:39.010Z,987.19
2023-04-28T05:23:43.215Z,987.24
2023-04-28T05:28:47.372Z,987.32
2023-04-28T05:33:51.529Z,987.25
2023-04-28T05:38:53.778Z,987.19
2023-04-28T05:43:58.001Z,987.14
2023-04-28T05:54:06.282Z,986.79
2023-04-28T05:59:10.472Z,986.65
2023-04-28T06:04:14.855Z,986.66
2023-04-28T06:09:18.969Z,986.75
2023-04-28T06:14:22.918Z,986.84
2023-04-28T06:19:27.121Z,986.78
2023-04-28T06:24:31.232Z,986.83
2023-04-28T06:29:35.428Z,986.86
2023-04-28T06:34:39.571Z,986.84
2023-04-28T06:39:43.723Z,986.71
2023-04-28T06:44:47.898Z,986.48
2023-04-28T06:49:52.210Z,986.23
2023-04-28T06:54:56.201Z,986.31
2023-04-28T07:00:00.399Z,986.38
2023-04-28T07:05:04.607Z,986.59
2023-04-28T07:10:08.720Z,986.77
2023-04-28T07:15:13.015Z,987.13
2023-04-28T07:20:17.010Z,987.13
2023-04-28T07:25:21.188Z,987.19
2023-04-28T07:30:27.815Z,987.37
2023-04-28T07:35:27.652Z,987.67
2023-04-28T07:40:31.022Z,987.94
2023-04-28T07:45:35.300Z,988.10
2023-04-28T07:50:39.358Z,988.23
2023-04-28T07:55:43.486Z,988.25
2023-04-28T08:00:47.656Z,988.49
2023-04-28T08:05:51.869Z,988.56
2023-04-28T08:10:55.953Z,988.71
2023-04-28T08:16:00.161Z,988.91
2023-04-28T08:21:04.324Z,989.05
2023-04-28T08:26:08.410Z,989.14
2023-04-28T08:31:12.597Z,989.24
2023-04-28T08:36:16.747Z,989.29
2023-04-28T08:41:20.921Z,989.52
2023-04-28T08:46:25.174Z,989.62
2023-04-28T08:51:29.234Z,989.47
2023-04-28T08:56:33.442Z,989.44
2023-04-28T09:01:37.604Z,989.58
2023-04-28T09:06:41.700Z,989.65
2023-04-28T09:11:45.877Z,989.73
2023-04-28T09:16:50.067Z,989.71
2023-04-28T09:21:54.407Z,989.60
2023-04-28T09:26:56.496Z,989.48
2023-04-28T09:32:00.632Z,989.56
2023-04-28T09:37:04.853Z,989.53
2023-04-28T09:42:08.995Z,989.66
2023-04-28T09:47:13.120Z,989.68
2023-04-28T09:52:17.305Z,989.70
2023-04-28T09:57:21.456Z,989.72
2023-04-28T10:02:42.637Z,989.64
2023-04-28T10:07:29.867Z,989.43
2023-04-28T10:12:33.937Z,989.26
2023-04-28T10:17:42.721Z,988.69
2023-04-28T10:22:42.298Z,988.91
2023-04-28T10:27:46.379Z,989.24
2023-04-28T10:32:50.633Z,989.42
2023-04-28T10:37:54.769Z,989.27
2023-04-28T10:42:58.912Z,989.15
2023-04-28T10:48:03.102Z,989.09
2023-04-28T10:53:07.203Z,989.19
2023-04-28T10:58:11.330Z,989.28
2023-04-28T11:03:15.655Z,989.10
2023-04-28T11:08:19.794Z,988.99
2023-04-28T11:13:21.955Z,988.73
2023-04-28T11:18:26.135Z,988.68
2023-04-28T11:23:28.653Z,988.68
2023-04-28T11:28:32.546Z,988.49
2023-04-28T11:33:34.860Z,988.51
2023-04-28T11:38:38.952Z,988.42
2023-04-28T11:43:47.468Z,988.26
2023-04-28T11:48:47.328Z,988.03
2023-04-28T11:53:51.475Z,987.93
2023-04-28T11:58:55.654Z,987.89
2023-04-28T12:03:59.935Z,987.97
2023-04-28T12:09:03.925Z,988.21
2023-04-28T12:14:08.128Z,988.00
2023-04-28T12:19:12.260Z,987.90
2023-04-28T12:24:16.442Z,987.98
2023-04-28T12:29:20.597Z,988.17
2023-04-28T12:34:24.770Z,988.46
2023-04-28T12:39:28.889Z,988.50
2023-04-28T12:44:33.062Z,988.53
2023-04-28T12:49:37.201Z,988.69
2023-04-28T12:54:41.392Z,988.60
2023-04-28T12:59:45.730Z,988.57
2023-04-28T13:04:49.810Z,988.61
2023-04-28T13:09:53.861Z,988.66
2023-04-28T13:15:04.520Z,988.63
2023-04-28T13:20:00.325Z,988.96
2023-04-28T13:25:04.459Z,989.18
2023-04-28T13:30:06.769Z,988.91
2023-04-28T13:35:10.900Z,988.84
2023-04-28T13:40:15.047Z,989.02
2023-04-28T13:45:20.668Z,989.23
2023-04-28T13:50:23.361Z,989.27
2023-04-28T13:55:27.594Z,989.25
2023-04-28T14:00:31.684Z,989.22
2023-04-28T14:05:48.304Z,989.12
2023-04-28T14:10:39.980Z,989.25
2023-04-28T14:15:51.334Z,989.35
2023-04-28T14:20:48.325Z,989.33
2023-04-28T14:25:55.222Z,989.28
2023-04-28T14:30:56.769Z,989.25
2023-04-28T14:36:00.803Z,989.18
2023-04-28T14:41:04.964Z,989.12
2023-04-28T14:46:09.106Z,989.14
2023-04-28T14:51:13.272Z,988.96
2023-04-28T14:56:19.525Z,989.05
2023-04-28T15:01:21.575Z,989.11
2023-04-28T15:06:25.700Z,989.10
2023-04-28T15:11:29.900Z,989.23
2023-04-28T15:16:32.308Z,989.23
2023-04-28T15:21:36.300Z,989.24
2023-04-28T15:26:38.695Z,989.28
2023-04-28T15:31:42.746Z,989.36
2023-04-28T15:36:46.885Z,989.39
2023-04-28T15:41:51.028Z,989.58
2023-04-28T15:46:55.198Z,989.73
2023-04-28T15:51:59.387Z,989.84
2023-04-28T15:57:03.590Z,989.85
2023-04-28T16:02:07.761Z,990.09
2023-04-28T16:07:11.913Z,990.19
2023-04-28T16:12:16.053Z,990.30
2023-04-28T16:17:20.178Z,990.42
2023-04-28T16:22:24.346Z,990.56
2023-04-28T16:27:28.508Z,990.66
2023-04-28T16:32:32.693Z,990.77
2023-04-28T16:37:37.111Z,990.78
2023-04-28T16:42:40.998Z,990.79
2023-04-28T16:47:45.168Z,990.91
2023-04-28T16:52:49.306Z,990.93
2023-04-28T16:57:53.482Z,990.82
2023-04-28T17:02:57.780Z,990.99
2023-04-28T17:08:01.811Z,991.16
2023-04-28T17:13:04.017Z,991.17
2023-04-28T17:18:08.232Z,991.21
2023-04-28T17:23:12.400Z,991.22
2023-04-28T17:28:16.527Z,991.34
2023-04-28T17:33:20.680Z,991.31
2023-04-28T17:38:24.863Z,991.38
2023-04-28T17:43:29.027Z,991.54
2023-04-28T17:48:33.176Z,991.48
2023-04-28T17:53:37.338Z,991.51
2023-04-28T17:58:41.481Z,991.44
2023-04-28T18:03:45.639Z,991.49
2023-04-28T18:08:49.782Z,991.42
2023-04-28T18:13:53.989Z,991.42
2023-04-28T18:18:58.148Z,991.43
2023-04-28T18:24:02.341Z,991.38
2023-04-28T18:29:06.466Z,991.39
2023-04-28T18:34:10.631Z,991.20
2023-04-28T18:39:14.773Z,991.17
2023-04-28T18:44:18.944Z,991.21
2023-04-28T18:49:23.098Z,991.12
2023-04-28T18:54:28.079Z,990.78
2023-04-28T18:59:29.545Z,990.65
2023-04-28T19:04:33.741Z,990.48
2023-04-28T19:09:35.952Z,990.41
2023-04-28T19:14:40.134Z,990.27
2023-04-28T19:19:44.289Z,990.30
2023-04-28T19:24:46.604Z,990.32
2023-04-28T19:29:50.983Z,990.29
2023-04-28T19:34:54.942Z,990.33
2023-04-28T19:39:59.124Z,990.31
2023-04-28T19:45:03.172Z,990.32
2023-04-28T19:50:07.366Z,990.40
2023-04-28T19:55:11.535Z,990.49
2023-04-28T20:00:15.714Z,990.52
2023-04-28T20:05:19.861Z,990.47
2023-04-28T20:10:24.002Z,990.45
2023-04-28T20:15:28.166Z,990.43
2023-04-28T20:20:32.337Z,990.21
2023-04-28T20:25:36.474Z,990.22
2023-04-28T20:30:40.620Z,990.16
2023-04-28T20:35:44.879Z,990.18
2023-04-28T20:40:48.972Z,990.20
2023-04-28T20:45:53.229Z,990.22
2023-04-28T20:50:57.276Z,990.22
2023-04-28T20:56:01.445Z,990.21
2023-04-28T21:01:05.636Z,990.18
2023-04-28T21:06:09.764Z,990.11
2023-04-28T21:11:12.054Z,989.97
2023-04-28T21:16:18.470Z,989.85
2023-04-28T21:21:20.341Z,989.62
2023-04-28T21:26:24.525Z,989.56
2023-04-28T21:31:26.818Z,989.52
2023-04-28T21:36:30.969Z,989.41
2023-04-28T21:41:35.076Z,989.13
2023-04-28T21:46:39.259Z,989.02
2023-04-28T21:51:43.448Z,988.96
2023-04-28T21:56:47.574Z,988.83
2023-04-28T22:01:51.762Z,988.61
2023-04-28T22:06:55.893Z,988.53
2023-04-28T22:12:00.098Z,988.54
2023-04-28T22:17:04.542Z,988.46
2023-04-28T22:22:09.215Z,988.41
2023-04-28T22:27:12.596Z,988.37
2023-04-28T22:32:16.733Z,988.36
2023-04-28T22:37:20.816Z,988.40
2023-04-28T22:42:24.973Z,988.27
2023-04-28T22:47:29.151Z,988.46
2023-04-28T22:52:46.039Z,988.56
2023-04-28T22:57:37.452Z,988.93
2023-04-28T23:02:41.652Z,989.10
2023-04-28T23:07:45.745Z,989.28
2023-04-28T23:17:54.114Z,989.54
2023-04-28T23:22:56.399Z,989.71
2023-04-28T23:28:00.556Z,989.97
2023-04-28T23:33:02.817Z,990.05
2023-04-28T23:38:06.953Z,990.32
2023-04-28T23:43:11.115Z,990.64
2023-04-28T23:48:15.249Z,990.92
2023-04-28T23:53:19.401Z,990.93
2023-04-28T23:58:23.555Z,991.09
